Time;durP1;ratioP1;P1;durP2;ratioP2;P2;SDS_P1;SDS_P2;PMS_P1;PMS_P2;Temp;Humidity;BMP_temperature;BMP_pressure;BME280_temperature;BME280_humidity;BME280_pressure;Samples;Min_cycle;Max_cycle;Signal;HPM_P1;HPM_P2
2023/05/29 00:03:52;;;;;;;;;;;;;;;17.92;49.12;99845.72;4356904;32;33661;-82
2023/05/29 00:06:40;;;;;;;;;;;;;;;17.84;49.86;99848.94;4356151;32;34954;-82
2023/05/29 00:17:43;;;;;;;;;;;;;;;17.99;49.02;99846.94;4355983;32;34618;-82
2023/05/29 00:20:18;;;;;;;;;;;;;;;17.78;50.11;99848.53;4346812;32;34106;-81
2023/05/29 00:22:53;;;;;;;;;;;;;;;17.82;49.99;99840.19;4346301;32;34363;-80
2023/05/29 00:28:06;;;;;;;;;;;;;;;17.77;50.70;99847.69;4354279;32;34848;-80
2023/05/29 00:30:42;;;;;;;;;;;;;;;17.73;51.02;99848.87;4334267;32;33000;-80
2023/05/29 00:33:17;;;;;;;;;;;;;;;17.78;50.87;99853.88;4354626;32;33862;-80
2023/05/29 00:35:52;;;;;;;;;;;;;;;17.75;50.34;99844.25;4356658;32;32900;-80
2023/05/29 00:38:28;;;;;;;;;;;;;;;17.70;49.88;99845.53;4351565;32;33847;-80
2023/05/29 00:40:56;;;;;;;;;;;;;;;17.67;50.13;99851.97;4356832;32;34060;-81
2023/05/29 00:46:30;;;;;;;;;;;;;;;17.59;49.22;99867.69;4353760;32;34053;-81
2023/05/29 00:54:25;;;;;;;;;;;;;;;17.53;49.11;99860.97;4354342;32;32542;-81
2023/05/29 00:57:04;;;;;;;;;;;;;;;17.24;50.06;99862.19;4354382;32;33685;-81
2023/05/29 01:05:06;;;;;;;;;;;;;;;17.31;49.35;99850.09;4353517;32;34363;-81
2023/05/29 01:07:50;;;;;;;;;;;;;;;17.42;49.75;99839.50;4346100;32;34263;-82
2023/05/29 01:10:31;;;;;;;;;;;;;;;17.46;49.63;99838.31;4353834;32;33722;-82
2023/05/29 01:13:10;;;;;;;;;;;;;;;17.48;49.76;99841.75;4352434;32;33920;-81
2023/05/29 01:15:44;;;;;;;;;;;;;;;17.55;49.21;99840.34;4355285;32;33629;-81
2023/05/29 01:18:20;;;;;;;;;;;;;;;17.61;48.92;99847.94;4355083;32;35205;-81
2023/05/29 01:21:01;;;;;;;;;;;;;;;17.66;49.00;99845.78;4354261;32;32908;-81
2023/05/29 01:23:44;;;;;;;;;;;;;;;17.64;49.28;99847.69;4353708;32;33655;-82
2023/05/29 01:26:18;;;;;;;;;;;;;;;17.50;49.94;99847.81;4353102;32;33817;-81
2023/05/29 01:29:02;;;;;;;;;;;;;;;17.53;50.10;99852.09;4336665;32;32048;-81
2023/05/29 01:31:37;;;;;;;;;;;;;;;17.45;50.48;99844.62;4341225;32;34275;-81
2023/05/29 01:36:51;;;;;;;;;;;;;;;17.21;51.58;99843.72;4351589;32;34118;-81
2023/05/29 01:39:28;;;;;;;;;;;;;;;17.30;51.30;99843.06;4346988;32;32741;-81
2023/05/29 01:42:00;;;;;;;;;;;;;;;17.30;51.07;99846.56;4343058;32;33900;-81
2023/05/29 01:44:27;;;;;;;;;;;;;;;17.37;50.93;99838.97;4346189;32;33027;-81
2023/05/29 01:46:55;;;;;;;;;;;;;;;17.40;50.75;99839.63;4334315;32;34377;-82
2023/05/29 01:49:37;;;;;;;;;;;;;;;17.40;50.74;99833.44;4336248;32;34018;-82
2023/05/29 01:52:04;;;;;;;;;;;;;;;17.31;51.02;99834.09;4356694;32;34061;-81
2023/05/29 01:54:34;;;;;;;;;;;;;;;17.10;51.50;99837.31;4347560;32;33470;-81
2023/05/29 01:57:05;;;;;;;;;;;;;;;17.08;51.93;99828.53;4334712;32;34753;-80
2023/05/29 01:59:45;;;;;;;;;;;;;;;17.09;51.54;99829.41;4347008;32;32424;-80
2023/05/29 02:02:16;;;;;;;;;;;;;;;17.08;51.62;99823.22;4350534;32;34113;-81
2023/05/29 02:04:56;;;;;;;;;;;;;;;16.95;52.26;99825.06;4347864;32;33806;-80
2023/05/29 02:10:18;;;;;;;;;;;;;;;17.09;51.68;99813.38;4354429;32;34197;-81
2023/05/29 02:15:26;;;;;;;;;;;;;;;17.10;52.04;99815.97;4362030;32;33799;-81
2023/05/29 02:18:02;;;;;;;;;;;;;;;17.13;51.99;99815.72;4360950;32;34774;-81
2023/05/29 02:23:12;;;;;;;;;;;;;;;17.01;52.35;99805.09;4349350;32;33094;-81
2023/05/29 02:25:50;;;;;;;;;;;;;;;17.06;52.16;99809.13;4361362;32;33920;-81
2023/05/29 02:28:23;;;;;;;;;;;;;;;17.01;52.35;99813.94;4363841;32;33811;-81
2023/05/29 02:33:40;;;;;;;;;;;;;;;16.87;52.94;99816.72;4361524;32;34694;-81
2023/05/29 02:36:20;;;;;;;;;;;;;;;16.81;53.14;99811.81;4362804;32;35055;-81
2023/05/29 02:38:54;;;;;;;;;;;;;;;16.79;52.95;99811.91;4355876;32;34400;-81
2023/05/29 02:41:21;;;;;;;;;;;;;;;16.55;54.00;99811.75;4357814;32;34156;-81
2023/05/29 02:43:50;;;;;;;;;;;;;;;16.76;52.96;99806.81;4349221;32;34064;-81
2023/05/29 02:46:28;;;;;;;;;;;;;;;16.58;53.81;99803.56;4345849;32;33855;-81
2023/05/29 02:49:15;;;;;;;;;;;;;;;16.31;54.54;99800.09;4362134;32;35258;-81
2023/05/29 02:51:56;;;;;;;;;;;;;;;16.59;53.84;99799.94;4363570;32;34022;-81
2023/05/29 02:54:34;;;;;;;;;;;;;;;16.41;54.38;99800.31;4361092;32;33321;-81
2023/05/29 02:57:09;;;;;;;;;;;;;;;16.26;54.84;99803.06;4361693;32;33035;-81
2023/05/29 02:59:49;;;;;;;;;;;;;;;16.17;55.12;99800.16;4362600;32;34461;-81
2023/05/29 03:02:30;;;;;;;;;;;;;;;16.38;54.62;99804.06;4350804;32;34025;-81
2023/05/29 03:05:10;;;;;;;;;;;;;;;16.35;54.76;99807.78;4363443;32;34242;-81
2023/05/29 03:07:42;;;;;;;;;;;;;;;16.37;54.84;99800.53;4362770;32;38124;-81
2023/05/29 03:13:00;;;;;;;;;;;;;;;16.42;54.67;99813.53;4364905;32;33448;-81
2023/05/29 03:18:19;;;;;;;;;;;;;;;16.57;54.45;99809.00;4364541;32;33747;-81
2023/05/29 03:21:02;;;;;;;;;;;;;;;16.48;54.73;99805.16;4356449;32;35817;-81
2023/05/29 03:23:36;;;;;;;;;;;;;;;16.59;54.49;99807.94;4361676;32;33388;-81
2023/05/29 03:26:22;;;;;;;;;;;;;;;16.52;54.74;99809.31;4361282;32;32736;-81
2023/05/29 03:28:57;;;;;;;;;;;;;;;16.57;54.77;99806.34;4361322;32;34383;-80
2023/05/29 03:31:44;;;;;;;;;;;;;;;16.54;55.24;99809.19;4354375;32;34162;-80
2023/05/29 03:34:23;;;;;;;;;;;;;;;16.65;55.17;99809.31;4364098;32;34236;-80
2023/05/29 03:37:11;;;;;;;;;;;;;;;16.62;55.33;99815.72;4356879;32;35682;-81
2023/05/29 03:39:57;;;;;;;;;;;;;;;16.69;55.21;99815.28;4361680;32;36034;-81
2023/05/29 03:48:21;;;;;;;;;;;;;;;16.79;55.71;99824.41;4364680;32;35711;-81
2023/05/29 03:53:32;;;;;;;;;;;;;;;17.18;54.76;99833.25;4365182;32;34550;-81
2023/05/29 03:56:19;;;;;;;;;;;;;;;16.95;55.08;99835.72;4355596;32;35156;-81
2023/05/29 03:59:06;;;;;;;;;;;;;;;17.17;54.72;99836.88;4364082;32;35865;-81
2023/05/29 04:01:59;;;;;;;;;;;;;;;17.27;54.53;99837.94;4363207;32;35019;-81
2023/05/29 04:04:34;;;;;;;;;;;;;;;17.47;54.61;99828.50;4358916;32;34879;-81
2023/05/29 04:10:08;;;;;;;;;;;;;;;17.45;55.12;99830.44;4367837;32;33922;-81
2023/05/29 04:15:19;;;;;;;;;;;;;;;17.71;54.79;99826.75;4367486;32;34384;-81
2023/05/29 04:18:00;;;;;;;;;;;;;;;17.85;54.52;99829.28;4359222;32;34300;-81
2023/05/29 04:20:36;;;;;;;;;;;;;;;18.02;54.06;99832.53;4363019;32;33565;-80
2023/05/29 04:25:57;;;;;;;;;;;;;;;18.34;53.90;99835.47;4369826;32;35190;-80
2023/05/29 04:33:54;;;;;;;;;;;;;;;18.89;53.39;99839.28;4366411;32;33956;-80
2023/05/29 04:36:33;;;;;;;;;;;;;;;19.02;54.05;99828.50;4354571;32;34139;-80
2023/05/29 04:39:14;;;;;;;;;;;;;;;19.14;53.41;99835.59;4366863;32;35651;-80
2023/05/29 04:41:42;;;;;;;;;;;;;;;19.30;52.57;99832.53;4356937;32;31156;-80
2023/05/29 04:44:18;;;;;;;;;;;;;;;19.34;52.49;99834.00;4355521;32;33790;-81
2023/05/29 04:52:09;;;;;;;;;;;;;;;19.84;51.31;99842.47;4345585;32;33791;-80
2023/05/29 04:54:47;;;;;;;;;;;;;;;19.79;51.47;99837.50;4355024;32;35137;-81
2023/05/29 04:57:34;;;;;;;;;;;;;;;20.04;51.58;99836.38;4370156;32;36066;-80
2023/05/29 05:05:35;;;;;;;;;;;;;;;20.35;50.56;99831.13;4347576;32;34487;-80
2023/05/29 05:08:07;;;;;;;;;;;;;;;20.31;50.48;99835.88;4340656;32;33032;-80
2023/05/29 05:10:54;;;;;;;;;;;;;;;20.73;50.47;99837.78;4349737;32;34856;-81
2023/05/29 05:16:11;;;;;;;;;;;;;;;21.15;49.80;99841.28;4361894;32;34085;-80
2023/05/29 05:21:24;;;;;;;;;;;;;;;21.43;50.04;99843.28;4360516;32;33615;-81
2023/05/29 05:24:11;;;;;;;;;;;;;;;21.50;48.31;99846.28;4358658;32;34615;-82
2023/05/29 05:26:46;;;;;;;;;;;;;;;21.32;46.87;99845.25;4360360;32;32970;-82
2023/05/29 05:29:21;;;;;;;;;;;;;;;21.23;45.98;99842.34;4347807;32;35114;-82
2023/05/29 05:32:05;;;;;;;;;;;;;;;21.52;46.02;99843.47;4360946;32;33980;-82
2023/05/29 05:34:39;;;;;;;;;;;;;;;21.83;46.19;99844.25;4360883;32;33754;-82
2023/05/29 05:40:00;;;;;;;;;;;;;;;22.15;45.93;99844.91;4359830;32;33618;-81
2023/05/29 05:42:40;;;;;;;;;;;;;;;22.24;45.22;99844.06;4370841;32;32651;-80
2023/05/29 05:45:20;;;;;;;;;;;;;;;22.22;43.13;99846.06;4371424;32;33684;-81
2023/05/29 05:53:30;;;;;;;;;;;;;;;22.70;43.29;99853.28;4360240;32;34263;-81
2023/05/29 05:56:04;;;;;;;;;;;;;;;22.96;43.59;99844.62;4360017;32;34601;-81
2023/05/29 06:01:26;;;;;;;;;;;;;;;22.84;42.95;99843.91;4360031;32;36080;-81
2023/05/29 06:06:38;;;;;;;;;;;;;;;22.94;42.84;99852.00;4353376;32;34036;-81
2023/05/29 06:09:14;;;;;;;;;;;;;;;23.38;40.93;99849.59;4362281;32;32876;-81
2023/05/29 06:11:48;;;;;;;;;;;;;;;23.26;41.92;99848.91;4365527;32;35151;-81
2023/05/29 06:14:35;;;;;;;;;;;;;;;23.32;42.07;99860.97;4360046;32;34385;-81
2023/05/29 06:17:21;;;;;;;;;;;;;;;23.50;42.51;99864.59;4366412;32;35771;-81
2023/05/29 06:19:56;;;;;;;;;;;;;;;23.54;42.16;99865.97;4365021;32;33027;-81
2023/05/29 06:22:34;;;;;;;;;;;;;;;23.57;41.94;99862.16;4348724;32;34100;-81
2023/05/29 06:25:16;;;;;;;;;;;;;;;23.32;41.70;99860.97;4362824;32;34038;-81
2023/05/29 06:27:45;;;;;;;;;;;;;;;23.32;42.11;99863.66;4353625;32;32239;-81
2023/05/29 06:30:23;;;;;;;;;;;;;;;23.65;43.14;99862.28;4359569;32;34790;-82
2023/05/29 06:32:55;;;;;;;;;;;;;;;23.96;42.44;99854.72;4374878;32;33475;-82
2023/05/29 06:41:20;;;;;;;;;;;;;;;24.49;38.93;99870.13;4364940;32;33992;-81
2023/05/29 06:49:42;;;;;;;;;;;;;;;24.00;39.11;99869.59;4366383;32;33175;-82
2023/05/29 06:55:11;;;;;;;;;;;;;;;24.35;39.21;99870.63;4364828;32;35514;-81
2023/05/29 07:03:41;;;;;;;;;;;;;;;24.55;38.99;99872.22;4360306;32;35590;-82
2023/05/29 07:06:13;;;;;;;;;;;;;;;24.71;37.29;99869.66;4364862;32;34790;-82
2023/05/29 07:08:42;;;;;;;;;;;;;;;24.95;37.36;99878.97;4354661;32;33373;-82
2023/05/29 07:11:11;;;;;;;;;;;;;;;25.07;38.12;99875.03;4366219;32;33117;-81
2023/05/29 07:13:39;;;;;;;;;;;;;;;24.67;37.50;99870.13;4361270;32;35026;-80
2023/05/29 07:16:07;;;;;;;;;;;;;;;24.73;37.96;99874.91;4362743;32;34060;-80
2023/05/29 07:18:51;;;;;;;;;;;;;;;24.95;37.43;99873.56;4355300;32;33217;-80
2023/05/29 07:21:22;;;;;;;;;;;;;;;25.15;37.21;99883.19;4357027;32;34147;-81
2023/05/29 07:23:54;;;;;;;;;;;;;;;24.66;37.52;99885.47;4354569;32;34294;-81
2023/05/29 07:26:25;;;;;;;;;;;;;;;24.80;38.29;99880.53;4353394;32;34462;-80
2023/05/29 07:28:53;;;;;;;;;;;;;;;25.33;38.60;99882.28;4364752;32;33603;-80
2023/05/29 07:31:23;;;;;;;;;;;;;;;25.16;37.98;99889.44;4355701;32;32694;-80
2023/05/29 07:33:57;;;;;;;;;;;;;;;25.01;37.31;99884.56;4353236;32;34708;-80
2023/05/29 07:36:33;;;;;;;;;;;;;;;24.99;38.13;99891.16;4364424;32;33868;-80
2023/05/29 07:39:05;;;;;;;;;;;;;;;25.61;37.48;99886.50;4357841;32;33784;-80
2023/05/29 07:41:35;;;;;;;;;;;;;;;25.17;38.15;99894.69;4351335;32;32952;-80
2023/05/29 07:44:10;;;;;;;;;;;;;;;25.31;38.17;99901.37;4365158;32;33995;-80
2023/05/29 07:46:46;;;;;;;;;;;;;;;25.73;38.62;99911.38;4351054;32;34242;-80
2023/05/29 07:49:17;;;;;;;;;;;;;;;25.49;37.16;99904.00;4365926;32;32852;-80
2023/05/29 07:51:47;;;;;;;;;;;;;;;25.76;38.05;99916.50;4344638;32;35357;-79
2023/05/29 07:54:20;;;;;;;;;;;;;;;25.34;39.16;99922.66;4353583;32;32852;-80
2023/05/29 07:56:50;;;;;;;;;;;;;;;24.88;40.07;99921.12;4365933;32;33699;-80
2023/05/29 07:59:21;;;;;;;;;;;;;;;25.42;39.68;99916.47;4352942;32;32907;-80
2023/05/29 08:01:51;;;;;;;;;;;;;;;25.70;39.10;99912.56;4365766;32;33702;-80
2023/05/29 08:04:21;;;;;;;;;;;;;;;25.59;38.81;99920.97;4364795;32;34774;-80
2023/05/29 08:06:52;;;;;;;;;;;;;;;25.44;39.06;99917.16;4367361;32;35025;-80
2023/05/29 08:09:24;;;;;;;;;;;;;;;25.55;39.17;99916.91;4355483;32;33610;-80
2023/05/29 08:11:54;;;;;;;;;;;;;;;25.39;38.89;99919.47;4354877;32;33941;-80
2023/05/29 08:14:23;;;;;;;;;;;;;;;25.41;38.88;99917.50;4366530;32;34748;-80
2023/05/29 08:16:51;;;;;;;;;;;;;;;25.79;39.29;99919.75;4368426;32;33104;-80
2023/05/29 08:19:19;;;;;;;;;;;;;;;25.55;39.18;99908.78;4367799;32;31972;-80
2023/05/29 08:21:47;;;;;;;;;;;;;;;25.73;38.61;99914.97;4353988;32;33763;-80
2023/05/29 08:24:16;;;;;;;;;;;;;;;25.71;38.62;99903.44;4354784;32;33800;-80
2023/05/29 08:26:48;;;;;;;;;;;;;;;26.07;37.71;99908.72;4355829;32;33019;-80
2023/05/29 08:29:17;;;;;;;;;;;;;;;25.73;38.70;99908.69;4355578;32;33258;-80
2023/05/29 08:31:45;;;;;;;;;;;;;;;26.05;38.44;99905.31;4367802;32;34111;-80
2023/05/29 08:36:56;;;;;;;;;;;;;;;26.16;38.37;99910.44;4368886;32;34842;-80
2023/05/29 08:39:24;;;;;;;;;;;;;;;26.37;36.97;99909.13;4369759;32;32796;-80
2023/05/29 08:42:06;;;;;;;;;;;;;;;26.13;37.32;99907.19;4355795;32;35232;-80
2023/05/29 08:44:35;;;;;;;;;;;;;;;25.96;38.73;99903.56;4347654;32;33322;-80
2023/05/29 08:47:05;;;;;;;;;;;;;;;25.76;39.43;99898.44;4355957;32;33936;-80
2023/05/29 08:49:41;;;;;;;;;;;;;;;26.04;37.45;99898.19;4370271;32;34604;-80
2023/05/29 08:52:20;;;;;;;;;;;;;;;26.15;37.49;99895.19;4347705;32;34187;-80
2023/05/29 08:54:54;;;;;;;;;;;;;;;26.40;37.78;99892.56;4355703;32;33481;-80
2023/05/29 08:57:33;;;;;;;;;;;;;;;26.44;37.40;99896.63;4354637;32;35596;-81
2023/05/29 09:00:12;;;;;;;;;;;;;;;26.04;37.98;99900.91;4367179;32;34044;-80
2023/05/29 09:02:43;;;;;;;;;;;;;;;26.35;37.09;99900.31;4356760;32;34097;-80
2023/05/29 09:05:12;;;;;;;;;;;;;;;27.01;36.77;99891.22;4341975;32;32772;-80
2023/05/29 09:07:43;;;;;;;;;;;;;;;27.45;35.46;99888.16;4354082;32;34145;-81
2023/05/29 09:10:18;;;;;;;;;;;;;;;27.47;34.97;99891.53;4354619;32;31895;-80
2023/05/29 09:12:49;;;;;;;;;;;;;;;26.97;36.04;99890.75;4354395;32;33621;-81
2023/05/29 09:15:22;;;;;;;;;;;;;;;26.65;37.20;99897.00;4353663;32;33857;-80
2023/05/29 09:17:57;;;;;;;;;;;;;;;26.93;36.62;99893.97;4354659;32;33996;-81
2023/05/29 09:20:28;;;;;;;;;;;;;;;26.69;37.24;99897.53;4357239;32;33647;-80
2023/05/29 09:22:58;;;;;;;;;;;;;;;26.89;37.01;99893.44;4359980;32;34908;-81
2023/05/29 09:25:33;;;;;;;;;;;;;;;26.93;36.69;99897.53;4352826;32;33915;-80
2023/05/29 09:28:07;;;;;;;;;;;;;;;26.52;36.48;99897.50;4339768;32;33996;-81
2023/05/29 09:34:02;;;;;;;;;;;;;;;26.41;36.41;99902.37;4361319;32;35462;-80
2023/05/29 09:36:33;;;;;;;;;;;;;;;26.70;37.10;99893.78;4354696;32;33726;-81
2023/05/29 09:39:03;;;;;;;;;;;;;;;26.71;36.85;99898.19;4352125;32;34174;-80
2023/05/29 09:41:48;;;;;;;;;;;;;;;26.93;37.00;99902.09;4354835;32;33324;-80
2023/05/29 09:50:11;;;;;;;;;;;;;;;26.75;37.65;99897.69;4486089;27;19968;-91
2023/05/29 09:52:58;;;;;;;;;;;;;;;27.35;37.39;99898.31;4332366;32;32327;-91
2023/05/29 09:55:28;;;;;;;;;;;;;;;26.84;38.65;99900.41;4328100;32;33570;-91
2023/05/29 09:57:57;;;;;;;;;;;;;;;27.11;37.11;99908.22;4323323;33;34280;-91
2023/05/29 10:00:25;;;;;;;;;;;;;;;27.21;37.90;99908.03;4324620;32;32725;-92
2023/05/29 10:03:09;;;;;;;;;;;;;;;27.04;36.88;99908.00;4351714;32;32026;-91
2023/05/29 10:05:46;;;;;;;;;;;;;;;27.29;36.70;99910.72;4332726;32;33290;-91
2023/05/29 10:08:15;;;;;;;;;;;;;;;27.05;37.72;99914.28;4328808;32;32685;-91
2023/05/29 10:10:46;;;;;;;;;;;;;;;27.23;36.24;99908.69;4333890;32;33168;-92
2023/05/29 10:13:14;;;;;;;;;;;;;;;27.44;36.30;99913.56;4365886;32;33272;-92
2023/05/29 10:15:56;;;;;;;;;;;;;;;27.18;36.55;99920.06;4316147;33;32928;-92
2023/05/29 10:18:24;;;;;;;;;;;;;;;27.16;36.55;99918.56;4320151;33;33294;-91
2023/05/29 10:20:58;;;;;;;;;;;;;;;27.31;35.71;99920.38;4338096;33;32763;-91
2023/05/29 10:23:27;;;;;;;;;;;;;;;26.83;36.00;99917.69;4306599;33;32245;-92
2023/05/29 10:25:59;;;;;;;;;;;;;;;26.77;36.34;99916.47;4306242;33;32617;-92
2023/05/29 10:28:27;;;;;;;;;;;;;;;26.73;36.42;99920.53;4322414;33;34292;-91
2023/05/29 10:31:20;;;;;;;;;;;;;;;26.38;35.98;99911.66;4308624;33;33172;-92
2023/05/29 10:34:26;;;;;;;;;;;;;;;26.49;35.92;99913.22;4312817;33;33353;-92
2023/05/29 10:37:25;;;;;;;;;;;;;;;26.88;36.64;99918.84;4344621;33;33749;-92
2023/05/29 10:40:12;;;;;;;;;;;;;;;26.22;37.83;99917.87;4352638;32;33711;-91
2023/05/29 10:42:59;;;;;;;;;;;;;;;26.18;38.32;99916.50;4339854;32;33607;-92
2023/05/29 10:45:50;;;;;;;;;;;;;;;26.71;37.66;99909.87;4357707;32;32803;-92
2023/05/29 10:48:30;;;;;;;;;;;;;;;26.72;36.94;99906.12;4343390;33;32799;-91
2023/05/29 10:51:00;;;;;;;;;;;;;;;26.89;36.39;99901.59;4343546;32;34151;-92
2023/05/29 10:53:50;;;;;;;;;;;;;;;26.75;37.84;99902.25;4335936;32;33544;-92
2023/05/29 10:56:29;;;;;;;;;;;;;;;26.29;37.51;99902.66;4351275;32;32233;-92
2023/05/29 10:59:35;;;;;;;;;;;;;;;26.30;37.99;99901.66;4333797;32;32496;-91
2023/05/29 11:02:23;;;;;;;;;;;;;;;26.17;38.76;99903.16;4354697;32;33201;-92
2023/05/29 11:05:17;;;;;;;;;;;;;;;26.32;38.39;99897.94;4332703;33;33732;-92
2023/05/29 11:08:06;;;;;;;;;;;;;;;25.95;38.79;99899.19;4329980;32;32305;-93
2023/05/29 11:11:00;;;;;;;;;;;;;;;26.07;39.67;99903.28;4345075;32;32892;-92
2023/05/29 11:13:40;;;;;;;;;;;;;;;25.84;39.59;99897.62;4363433;32;34935;-91
2023/05/29 11:16:48;;;;;;;;;;;;;;;25.73;39.04;99895.16;4317042;33;32647;-91
2023/05/29 11:19:35;;;;;;;;;;;;;;;25.92;39.85;99894.97;4318702;33;32240;-92
2023/05/29 11:22:21;;;;;;;;;;;;;;;25.77;39.85;99901.97;4346326;32;33233;-91
2023/05/29 11:24:53;;;;;;;;;;;;;;;25.22;40.80;99897.78;4344912;32;33213;-92
2023/05/29 11:27:46;;;;;;;;;;;;;;;25.55;40.93;99892.56;4340559;32;33250;-93
2023/05/29 11:30:18;;;;;;;;;;;;;;;25.55;40.49;99892.56;4326467;33;32365;-92
2023/05/29 11:32:52;;;;;;;;;;;;;;;25.81;40.59;99886.28;4331650;32;34098;-92
2023/05/29 11:35:39;;;;;;;;;;;;;;;25.77;41.27;99894.72;4328612;32;32884;-92
2023/05/29 11:38:15;;;;;;;;;;;;;;;25.73;41.73;99887.91;4322977;32;33002;-92
2023/05/29 11:41:03;;;;;;;;;;;;;;;25.75;42.13;99894.03;4330016;32;32418;-92
2023/05/29 11:44:05;;;;;;;;;;;;;;;25.97;40.93;99892.59;4331173;33;34256;-92
2023/05/29 11:46:34;;;;;;;;;;;;;;;25.90;41.20;99882.59;4351741;32;32830;-92
2023/05/29 11:49:10;;;;;;;;;;;;;;;25.94;41.69;99879.41;4316098;32;33457;-92
2023/05/29 11:51:41;;;;;;;;;;;;;;;25.66;42.10;99876.03;4344935;32;32327;-92
2023/05/29 11:54:32;;;;;;;;;;;;;;;25.98;42.27;99867.25;4320453;32;968644;-92
2023/05/29 11:57:19;;;;;;;;;;;;;;;26.09;42.23;99863.37;4340711;32;32727;-92
2023/05/29 12:00:09;;;;;;;;;;;;;;;25.96;41.69;99857.59;4334669;32;33411;-92
2023/05/29 12:02:58;;;;;;;;;;;;;;;26.21;41.52;99847.69;4324274;33;32250;-91
2023/05/29 12:05:26;;;;;;;;;;;;;;;26.22;41.79;99847.50;4370266;32;32683;-91
2023/05/29 12:07:56;;;;;;;;;;;;;;;26.46;41.44;99837.75;4339454;32;33025;-93
2023/05/29 12:10:24;;;;;;;;;;;;;;;26.61;39.28;99835.22;4338359;32;33100;-92
2023/05/29 12:12:52;;;;;;;;;;;;;;;27.29;38.62;99830.22;4355201;32;32339;-93
2023/05/29 12:15:24;;;;;;;;;;;;;;;27.62;37.63;99830.09;4339421;32;32837;-91
2023/05/29 12:17:53;;;;;;;;;;;;;;;27.99;38.67;99825.87;4332586;32;33103;-91
2023/05/29 12:20:26;;;;;;;;;;;;;;;28.31;35.67;99809.38;4365647;32;34191;-91
2023/05/29 12:22:54;;;;;;;;;;;;;;;28.13;36.20;99814.25;4355210;32;33313;-91
2023/05/29 12:25:22;;;;;;;;;;;;;;;27.81;36.98;99820.72;4352567;32;32784;-93
2023/05/29 12:27:49;;;;;;;;;;;;;;;27.61;36.59;99817.56;4333645;32;32791;-92
2023/05/29 12:30:17;;;;;;;;;;;;;;;27.53;36.25;99820.31;4340818;32;33229;-91
2023/05/29 12:32:59;;;;;;;;;;;;;;;27.55;36.92;99816.41;4340433;32;32617;-91
2023/05/29 12:35:29;;;;;;;;;;;;;;;28.14;35.51;99810.50;4336455;33;34076;-91
2023/05/29 12:38:09;;;;;;;;;;;;;;;28.31;36.30;99809.38;4324519;32;33245;-93
2023/05/29 12:40:39;;;;;;;;;;;;;;;28.24;33.92;99804.84;4349253;32;33057;-91
2023/05/29 12:43:20;;;;;;;;;;;;;;;27.69;35.73;99806.69;4366858;32;32734;-89
2023/05/29 12:45:54;;;;;;;;;;;;;;;27.61;36.45;99806.72;4368359;32;34077;-91
2023/05/29 12:48:25;;;;;;;;;;;;;;;28.15;35.61;99804.06;4367542;32;33404;-91
2023/05/29 12:51:04;;;;;;;;;;;;;;;28.15;35.53;99801.34;4357447;32;33701;-91
2023/05/29 12:53:54;;;;;;;;;;;;;;;28.05;35.90;99804.28;4356263;32;32409;-91
2023/05/29 12:56:46;;;;;;;;;;;;;;;27.94;35.52;99795.72;4353975;32;32677;-92
2023/05/29 12:59:33;;;;;;;;;;;;;;;28.49;36.38;99800.12;4357389;32;33837;-91
2023/05/29 13:02:01;;;;;;;;;;;;;;;29.01;34.79;99799.31;4366427;32;32956;-91
2023/05/29 13:04:29;;;;;;;;;;;;;;;28.88;33.94;99794.50;4351398;32;32828;-92
2023/05/29 13:06:57;;;;;;;;;;;;;;;29.29;33.37;99797.66;4352198;32;32627;-91
2023/05/29 13:09:26;;;;;;;;;;;;;;;29.25;33.59;99785.44;4354228;32;33002;-90
2023/05/29 13:11:56;;;;;;;;;;;;;;;29.66;33.20;99793.09;4366518;32;32751;-91
2023/05/29 13:14:44;;;;;;;;;;;;;;;29.10;33.96;99803.59;4359108;32;32623;-90
2023/05/29 13:17:11;;;;;;;;;;;;;;;28.74;33.38;99798.88;4368238;32;34263;-91
2023/05/29 13:19:39;;;;;;;;;;;;;;;28.87;33.23;99797.41;4344043;32;33877;-90
2023/05/29 13:22:07;;;;;;;;;;;;;;;28.30;34.10;99794.13;4332073;32;33659;-91
2023/05/29 13:24:39;;;;;;;;;;;;;;;28.62;34.33;99794.87;4361518;32;33696;-90
2023/05/29 13:27:07;;;;;;;;;;;;;;;28.45;34.77;99799.62;4369425;32;34318;-91
2023/05/29 13:29:49;;;;;;;;;;;;;;;28.46;35.52;99795.87;4328767;32;33135;-90
2023/05/29 13:32:17;;;;;;;;;;;;;;;28.53;35.15;99794.16;4322865;32;33409;-89
2023/05/29 13:34:45;;;;;;;;;;;;;;;28.47;36.15;99791.28;4335023;32;34279;-88
2023/05/29 13:37:12;;;;;;;;;;;;;;;28.04;35.86;99785.47;4334820;32;34255;-88
2023/05/29 13:39:40;;;;;;;;;;;;;;;28.15;36.07;99787.75;4352388;32;34110;-88
2023/05/29 13:42:07;;;;;;;;;;;;;;;28.29;35.73;99783.44;4349382;32;32772;-88
2023/05/29 13:44:36;;;;;;;;;;;;;;;28.48;35.57;99777.53;4329142;32;32837;-89
2023/05/29 13:47:05;;;;;;;;;;;;;;;28.27;36.09;99785.50;4357188;32;34110;-88
2023/05/29 13:49:33;;;;;;;;;;;;;;;28.03;35.09;99783.81;4342806;32;33189;-89
2023/05/29 13:52:02;;;;;;;;;;;;;;;28.37;34.74;99785.28;4333067;32;34605;-89
2023/05/29 13:54:31;;;;;;;;;;;;;;;28.48;34.68;99782.13;4351573;32;33123;-90
2023/05/29 13:57:00;;;;;;;;;;;;;;;28.42;34.90;99783.69;4341015;32;34516;-90
2023/05/29 13:59:27;;;;;;;;;;;;;;;28.61;34.49;99781.50;4348256;32;33158;-90
2023/05/29 14:01:55;;;;;;;;;;;;;;;28.39;34.57;99775.06;4343764;32;34449;-88
2023/05/29 14:04:23;;;;;;;;;;;;;;;28.47;35.28;99783.16;4331827;32;33223;-89
2023/05/29 14:06:51;;;;;;;;;;;;;;;28.29;35.95;99781.56;4354853;32;33762;-89
2023/05/29 14:09:26;;;;;;;;;;;;;;;27.72;37.26;99781.09;4341425;32;32946;-89
2023/05/29 14:11:54;;;;;;;;;;;;;;;27.84;36.25;99767.97;4346734;32;33115;-90
2023/05/29 14:14:22;;;;;;;;;;;;;;;27.76;36.63;99771.56;4336868;32;32467;-90
2023/05/29 14:16:49;;;;;;;;;;;;;;;28.08;36.94;99773.25;4325797;32;32755;-90
2023/05/29 14:19:19;;;;;;;;;;;;;;;28.25;36.71;99771.25;4337600;32;33086;-90
2023/05/29 14:21:46;;;;;;;;;;;;;;;28.00;36.75;99770.56;4351070;32;34552;-90
2023/05/29 14:24:15;;;;;;;;;;;;;;;28.06;37.83;99772.59;4338779;32;32671;-90
2023/05/29 14:26:46;;;;;;;;;;;;;;;28.20;37.52;99774.53;4322709;32;32972;-89
2023/05/29 14:29:14;;;;;;;;;;;;;;;28.48;36.76;99768.53;4356726;32;32881;-90
2023/05/29 14:31:43;;;;;;;;;;;;;;;28.22;37.27;99771.63;4348146;32;34086;-89
2023/05/29 14:34:11;;;;;;;;;;;;;;;27.91;37.01;99768.94;4349560;32;33537;-90
2023/05/29 14:36:39;;;;;;;;;;;;;;;27.92;37.72;99774.22;4350403;32;34065;-89
2023/05/29 14:39:08;;;;;;;;;;;;;;;27.76;38.02;99775.13;4367019;32;33834;-89
2023/05/29 14:41:36;;;;;;;;;;;;;;;27.63;38.53;99776.69;4350597;32;34862;-89
2023/05/29 14:44:03;;;;;;;;;;;;;;;27.55;38.94;99781.16;4348784;32;32522;-89
2023/05/29 14:46:31;;;;;;;;;;;;;;;27.25;38.83;99779.22;4342474;32;33357;-89
2023/05/29 14:49:00;;;;;;;;;;;;;;;27.34;39.50;99774.63;4350730;32;33428;-89
2023/05/29 14:51:28;;;;;;;;;;;;;;;27.60;38.36;99763.50;4349617;32;35133;-89
2023/05/29 14:53:56;;;;;;;;;;;;;;;27.54;38.35;99775.91;4360389;32;32823;-90
2023/05/29 14:56:23;;;;;;;;;;;;;;;27.84;36.97;99757.13;4354113;32;32683;-90
2023/05/29 14:58:52;;;;;;;;;;;;;;;27.66;38.70;99747.34;4364286;32;33950;-90
2023/05/29 15:01:20;;;;;;;;;;;;;;;27.61;38.57;99760.62;4341311;32;33617;-90
2023/05/29 15:03:47;;;;;;;;;;;;;;;27.84;38.50;99754.41;4339036;32;32368;-90
2023/05/29 15:06:15;;;;;;;;;;;;;;;27.93;38.43;99756.06;4337664;32;32783;-90
2023/05/29 15:08:43;;;;;;;;;;;;;;;28.16;37.51;99759.63;4362287;32;34336;-89
2023/05/29 15:11:15;;;;;;;;;;;;;;;28.10;37.84;99757.59;4340428;32;33070;-90
2023/05/29 15:13:42;;;;;;;;;;;;;;;27.95;37.86;99756.72;4339076;32;32526;-90
2023/05/29 15:16:10;;;;;;;;;;;;;;;28.17;37.59;99749.59;4344750;32;34010;-90
2023/05/29 15:18:38;;;;;;;;;;;;;;;27.81;37.26;99761.03;4348400;32;33594;-91
2023/05/29 15:21:06;;;;;;;;;;;;;;;27.90;37.15;99751.81;4353149;32;33446;-91
2023/05/29 15:23:38;;;;;;;;;;;;;;;27.89;36.37;99755.56;4355990;32;32100;-91
2023/05/29 15:26:07;;;;;;;;;;;;;;;28.24;35.70;99745.94;4344463;32;32819;-90
2023/05/29 15:28:34;;;;;;;;;;;;;;;28.03;36.19;99751.22;4355964;32;33973;-91
2023/05/29 15:31:16;;;;;;;;;;;;;;;28.29;34.55;99748.97;4315743;32;33170;-91
2023/05/29 15:34:03;;;;;;;;;;;;;;;28.34;33.91;99743.03;4338676;32;32151;-91
2023/05/29 15:36:51;;;;;;;;;;;;;;;28.07;34.67;99747.13;4318697;32;33105;-91
2023/05/29 15:39:39;;;;;;;;;;;;;;;28.28;34.76;99743.72;4340764;32;33339;-91